sensor_id;sensor_type;location;lat;lon;timestamp;pressure;altitude;pressure_sealevel;temperature;humidity
79671;BME280;69137;50.878;8.050;2023-07-20T00:02:14;98139.59;;;16.62;68.36
79671;BME280;69137;50.878;8.050;2023-07-20T00:04:40;98131.28;;;16.53;68.93
79671;BME280;69137;50.878;8.050;2023-07-20T00:07:05;98133.00;;;16.49;68.66
79671;BME280;69137;50.878;8.050;2023-07-20T00:09:31;98133.97;;;16.45;69.13
79671;BME280;69137;50.878;8.050;2023-07-20T00:11:56;98131.81;;;16.42;68.87
79671;BME280;69137;50.878;8.050;2023-07-20T00:14:22;98128.06;;;16.37;69.16
79671;BME280;69137;50.878;8.050;2023-07-20T00:16:50;98129.56;;;16.44;69.20
79671;BME280;69137;50.878;8.050;2023-07-20T00:19:24;98127.25;;;16.37;69.77
79671;BME280;69137;50.878;8.050;2023-07-20T00:21:50;98124.44;;;16.14;70.42
79671;BME280;69137;50.878;8.050;2023-07-20T00:24:16;98132.63;;;16.06;70.92
79671;BME280;69137;50.878;8.050;2023-07-20T00:26:41;98126.19;;;15.97;71.34
79671;BME280;69137;50.878;8.050;2023-07-20T00:29:07;98124.88;;;15.80;71.91
79671;BME280;69137;50.878;8.050;2023-07-20T00:31:32;98122.00;;;15.71;72.22
79671;BME280;69137;50.878;8.050;2023-07-20T00:34:00;98119.53;;;15.56;72.56
79671;BME280;69137;50.878;8.050;2023-07-20T00:36:25;98111.97;;;15.48;72.96
79671;BME280;69137;50.878;8.050;2023-07-20T00:38:51;98111.78;;;15.44;73.46
79671;BME280;69137;50.878;8.050;2023-07-20T00:41:16;98109.94;;;15.40;73.34
79671;BME280;69137;50.878;8.050;2023-07-20T00:43:42;98107.28;;;15.35;73.96
79671;BME280;69137;50.878;8.050;2023-07-20T00:46:08;98102.50;;;15.40;73.69
79671;BME280;69137;50.878;8.050;2023-07-20T00:48:34;98105.06;;;15.37;73.65
79671;BME280;69137;50.878;8.050;2023-07-20T00:51:01;98110.03;;;15.21;74.33
79671;BME280;69137;50.878;8.050;2023-07-20T00:53:27;98125.72;;;15.20;74.60
79671;BME280;69137;50.878;8.050;2023-07-20T00:55:53;98116.34;;;15.21;74.46
79671;BME280;69137;50.878;8.050;2023-07-20T00:58:19;98122.03;;;15.11;74.88
79671;BME280;69137;50.878;8.050;2023-07-20T01:00:45;98116.63;;;15.06;75.57
79671;BME280;69137;50.878;8.050;2023-07-20T01:03:12;98122.72;;;15.03;75.50
79671;BME280;69137;50.878;8.050;2023-07-20T01:11:23;98114.66;;;14.93;76.26
79671;BME280;69137;50.878;8.050;2023-07-20T01:13:53;98127.50;;;14.97;76.28
79671;BME280;69137;50.878;8.050;2023-07-20T01:16:19;98124.13;;;14.87;76.15
79671;BME280;69137;50.878;8.050;2023-07-20T01:18:44;98136.38;;;14.75;76.82
79671;BME280;69137;50.878;8.050;2023-07-20T01:21:16;98138.47;;;14.64;77.41
79671;BME280;69137;50.878;8.050;2023-07-20T01:29:06;98134.59;;;14.47;77.98
79671;BME280;69137;50.878;8.050;2023-07-20T01:31:37;98131.63;;;14.43;78.11
79671;BME280;69137;50.878;8.050;2023-07-20T01:34:05;98130.50;;;14.44;78.06
79671;BME280;69137;50.878;8.050;2023-07-20T01:36:35;98129.09;;;14.47;78.72
79671;BME280;69137;50.878;8.050;2023-07-20T01:39:02;98122.66;;;14.56;77.80
79671;BME280;69137;50.878;8.050;2023-07-20T01:41:27;98120.03;;;14.65;77.78
79671;BME280;69137;50.878;8.050;2023-07-20T01:43:53;98125.53;;;14.65;77.80
79671;BME280;69137;50.878;8.050;2023-07-20T01:46:18;98131.63;;;14.62;78.35
79671;BME280;69137;50.878;8.050;2023-07-20T01:48:44;98137.13;;;14.62;78.32
79671;BME280;69137;50.878;8.050;2023-07-20T01:51:09;98124.66;;;14.70;77.75
79671;BME280;69137;50.878;8.050;2023-07-20T01:53:35;98127.53;;;14.78;77.54
79671;BME280;69137;50.878;8.050;2023-07-20T01:56:00;98135.78;;;14.78;77.41
79671;BME280;69137;50.878;8.050;2023-07-20T01:58:26;98137.41;;;14.79;77.18
79671;BME280;69137;50.878;8.050;2023-07-20T02:00:51;98138.69;;;14.87;77.23
79671;BME280;69137;50.878;8.050;2023-07-20T02:03:16;98135.53;;;14.94;76.96
79671;BME280;69137;50.878;8.050;2023-07-20T02:05:42;98128.19;;;14.89;76.74
79671;BME280;69137;50.878;8.050;2023-07-20T02:08:08;98133.59;;;14.94;76.83
79671;BME280;69137;50.878;8.050;2023-07-20T02:10:33;98133.59;;;14.94;77.07
79671;BME280;69137;50.878;8.050;2023-07-20T02:12:59;98134.63;;;14.98;76.63
79671;BME280;69137;50.878;8.050;2023-07-20T02:15:24;98124.84;;;14.92;76.95
79671;BME280;69137;50.878;8.050;2023-07-20T02:17:50;98134.72;;;14.93;77.30
79671;BME280;69137;50.878;8.050;2023-07-20T02:20:15;98136.03;;;14.96;76.85
79671;BME280;69137;50.878;8.050;2023-07-20T02:22:41;98134.41;;;14.95;76.97
79671;BME280;69137;50.878;8.050;2023-07-20T02:25:07;98133.28;;;14.96;76.69
79671;BME280;69137;50.878;8.050;2023-07-20T02:27:36;98129.94;;;14.99;76.39
79671;BME280;69137;50.878;8.050;2023-07-20T02:30:02;98133.13;;;15.06;76.36
79671;BME280;69137;50.878;8.050;2023-07-20T02:32:28;98136.38;;;15.08;76.18
79671;BME280;69137;50.878;8.050;2023-07-20T02:34:54;98131.59;;;15.00;76.34
79671;BME280;69137;50.878;8.050;2023-07-20T02:37:19;98136.84;;;14.96;76.57
79671;BME280;69137;50.878;8.050;2023-07-20T02:39:44;98127.69;;;15.01;76.47
79671;BME280;69137;50.878;8.050;2023-07-20T02:42:10;98112.88;;;15.16;76.57
79671;BME280;69137;50.878;8.050;2023-07-20T02:44:35;98113.78;;;15.11;76.11
79671;BME280;69137;50.878;8.050;2023-07-20T02:47:01;98113.34;;;15.04;76.41
79671;BME280;69137;50.878;8.050;2023-07-20T02:49:27;98112.97;;;15.11;76.30
79671;BME280;69137;50.878;8.050;2023-07-20T02:51:52;98113.47;;;15.13;76.26
79671;BME280;69137;50.878;8.050;2023-07-20T02:54:18;98114.91;;;15.10;76.56
79671;BME280;69137;50.878;8.050;2023-07-20T02:56:43;98106.41;;;15.06;76.47
79671;BME280;69137;50.878;8.050;2023-07-20T02:59:10;98118.47;;;15.11;76.32
79671;BME280;69137;50.878;8.050;2023-07-20T03:01:35;98114.38;;;15.08;76.53
79671;BME280;69137;50.878;8.050;2023-07-20T03:04:01;98116.91;;;15.04;76.85
79671;BME280;69137;50.878;8.050;2023-07-20T03:06:27;98111.41;;;15.04;76.57
79671;BME280;69137;50.878;8.050;2023-07-20T03:08:53;98113.44;;;14.99;77.02
79671;BME280;69137;50.878;8.050;2023-07-20T03:11:19;98122.16;;;14.87;77.81
79671;BME280;69137;50.878;8.050;2023-07-20T03:13:46;98112.50;;;14.90;77.46
79671;BME280;69137;50.878;8.050;2023-07-20T03:16:13;98123.78;;;14.88;77.56
79671;BME280;69137;50.878;8.050;2023-07-20T03:18:43;98121.28;;;14.92;77.66
79671;BME280;69137;50.878;8.050;2023-07-20T03:21:09;98125.91;;;14.77;77.91
79671;BME280;69137;50.878;8.050;2023-07-20T03:23:36;98123.97;;;14.78;77.75
79671;BME280;69137;50.878;8.050;2023-07-20T03:26:02;98124.03;;;14.73;78.15
79671;BME280;69137;50.878;8.050;2023-07-20T03:28:27;98119.28;;;14.78;77.83
79671;BME280;69137;50.878;8.050;2023-07-20T03:30:54;98125.63;;;14.79;78.63
79671;BME280;69137;50.878;8.050;2023-07-20T03:33:30;98133.19;;;14.87;78.40
79671;BME280;69137;50.878;8.050;2023-07-20T03:35:56;98128.66;;;14.77;78.33
79671;BME280;69137;50.878;8.050;2023-07-20T03:38:22;98131.91;;;14.79;78.38
79671;BME280;69137;50.878;8.050;2023-07-20T03:40:59;98138.41;;;14.70;78.32
79671;BME280;69137;50.878;8.050;2023-07-20T03:43:26;98137.44;;;14.60;79.03
79671;BME280;69137;50.878;8.050;2023-07-20T03:45:52;98138.91;;;14.72;79.16
79671;BME280;69137;50.878;8.050;2023-07-20T03:48:19;98132.69;;;14.66;78.73
79671;BME280;69137;50.878;8.050;2023-07-20T03:50:46;98132.91;;;14.70;78.67
79671;BME280;69137;50.878;8.050;2023-07-20T03:53:12;98141.88;;;14.75;78.56
79671;BME280;69137;50.878;8.050;2023-07-20T03:55:38;98137.09;;;14.81;78.58
79671;BME280;69137;50.878;8.050;2023-07-20T03:58:06;98144.38;;;14.91;78.12
79671;BME280;69137;50.878;8.050;2023-07-20T04:00:31;98142.22;;;14.88;78.27
79671;BME280;69137;50.878;8.050;2023-07-20T04:02:56;98146.69;;;14.83;78.96
79671;BME280;69137;50.878;8.050;2023-07-20T04:05:22;98141.34;;;14.92;79.50
79671;BME280;69137;50.878;8.050;2023-07-20T04:07:47;98137.88;;;14.87;80.63
79671;BME280;69137;50.878;8.050;2023-07-20T04:10:13;98140.13;;;14.98;81.11
79671;BME280;69137;50.878;8.050;2023-07-20T04:12:38;98144.63;;;14.94;81.24
79671;BME280;69137;50.878;8.050;2023-07-20T04:15:04;98135.22;;;14.95;81.21
79671;BME280;69137;50.878;8.050;2023-07-20T04:17:29;98131.75;;;14.90;81.44
79671;BME280;69137;50.878;8.050;2023-07-20T04:19:55;98142.44;;;14.91;81.06
79671;BME280;69137;50.878;8.050;2023-07-20T04:22:20;98153.16;;;14.93;81.43
79671;BME280;69137;50.878;8.050;2023-07-20T04:24:46;98151.97;;;14.80;82.26
79671;BME280;69137;50.878;8.050;2023-07-20T04:27:12;98153.59;;;14.81;82.18
79671;BME280;69137;50.878;8.050;2023-07-20T04:29:37;98149.16;;;14.85;82.61
79671;BME280;69137;50.878;8.050;2023-07-20T04:32:03;98158.28;;;14.80;82.89
79671;BME280;69137;50.878;8.050;2023-07-20T04:34:29;98157.56;;;14.75;83.65
79671;BME280;69137;50.878;8.050;2023-07-20T04:36:54;98145.84;;;14.69;83.46
79671;BME280;69137;50.878;8.050;2023-07-20T04:39:19;98150.72;;;14.72;84.56
79671;BME280;69137;50.878;8.050;2023-07-20T04:41:45;98147.38;;;14.75;83.72
79671;BME280;69137;50.878;8.050;2023-07-20T04:44:10;98145.75;;;14.74;83.55
79671;BME280;69137;50.878;8.050;2023-07-20T04:46:36;98149.38;;;14.70;84.41
79671;BME280;69137;50.878;8.050;2023-07-20T04:49:01;98154.44;;;14.81;83.58
79671;BME280;69137;50.878;8.050;2023-07-20T04:51:27;98145.34;;;14.81;84.05
79671;BME280;69137;50.878;8.050;2023-07-20T04:53:55;98151.63;;;14.87;83.80
79671;BME280;69137;50.878;8.050;2023-07-20T04:56:20;98161.78;;;14.86;83.76
79671;BME280;69137;50.878;8.050;2023-07-20T04:58:48;98149.34;;;14.89;83.41
79671;BME280;69137;50.878;8.050;2023-07-20T05:01:13;98147.03;;;14.96;83.11
79671;BME280;69137;50.878;8.050;2023-07-20T05:03:39;98147.03;;;14.96;83.28
79671;BME280;69137;50.878;8.050;2023-07-20T05:06:04;98145.34;;;15.00;83.36
79671;BME280;69137;50.878;8.050;2023-07-20T05:08:30;98148.09;;;15.00;83.79
79671;BME280;69137;50.878;8.050;2023-07-20T05:10:55;98145.84;;;15.02;83.76
79671;BME280;69137;50.878;8.050;2023-07-20T05:13:20;98143.50;;;15.09;83.44
79671;BME280;69137;50.878;8.050;2023-07-20T05:15:46;98150.50;;;15.20;83.32
79671;BME280;69137;50.878;8.050;2023-07-20T05:18:11;98145.38;;;15.27;82.91
79671;BME280;69137;50.878;8.050;2023-07-20T05:20:37;98147.03;;;15.28;83.33
79671;BME280;69137;50.878;8.050;2023-07-20T05:23:03;98143.78;;;15.26;83.55
79671;BME280;69137;50.878;8.050;2023-07-20T05:25:28;98149.38;;;15.21;83.03
79671;BME280;69137;50.878;8.050;2023-07-20T05:27:54;98145.63;;;15.31;82.49
79671;BME280;69137;50.878;8.050;2023-07-20T05:30:20;98146.72;;;15.30;82.35
79671;BME280;69137;50.878;8.050;2023-07-20T05:32:46;98146.97;;;15.47;82.09
79671;BME280;69137;50.878;8.050;2023-07-20T05:35:19;98148.00;;;15.51;81.54
79671;BME280;69137;50.878;8.050;2023-07-20T05:37:45;98145.16;;;15.57;81.95
79671;BME280;69137;50.878;8.050;2023-07-20T05:40:11;98154.22;;;15.57;80.93
79671;BME280;69137;50.878;8.050;2023-07-20T05:42:38;98148.63;;;15.62;81.63
79671;BME280;69137;50.878;8.050;2023-07-20T05:45:03;98159.41;;;15.59;81.33
79671;BME280;69137;50.878;8.050;2023-07-20T05:47:29;98158.59;;;15.58;81.00
79671;BME280;69137;50.878;8.050;2023-07-20T05:49:54;98153.22;;;15.67;80.24
79671;BME280;69137;50.878;8.050;2023-07-20T05:52:20;98157.88;;;15.66;81.25
79671;BME280;69137;50.878;8.050;2023-07-20T05:54:45;98160.28;;;15.73;80.17
79671;BME280;69137;50.878;8.050;2023-07-20T05:57:11;98159.91;;;15.61;80.50
79671;BME280;69137;50.878;8.050;2023-07-20T05:59:36;98162.22;;;15.72;79.87
79671;BME280;69137;50.878;8.050;2023-07-20T06:02:03;98152.72;;;15.79;78.88
79671;BME280;69137;50.878;8.050;2023-07-20T06:04:31;98161.09;;;15.73;79.88
79671;BME280;69137;50.878;8.050;2023-07-20T06:06:56;98172.41;;;15.72;80.52
79671;BME280;69137;50.878;8.050;2023-07-20T06:09:22;98168.00;;;15.85;79.97
79671;BME280;69137;50.878;8.050;2023-07-20T06:11:47;98178.13;;;15.89;80.00
79671;BME280;69137;50.878;8.050;2023-07-20T06:14:12;98175.38;;;15.89;78.78
79671;BME280;69137;50.878;8.050;2023-07-20T06:16:38;98177.91;;;16.00;78.63
79671;BME280;69137;50.878;8.050;2023-07-20T06:19:03;98173.00;;;16.10;78.83
79671;BME280;69137;50.878;8.050;2023-07-20T06:21:31;98172.13;;;16.01;77.38
79671;BME280;69137;50.878;8.050;2023-07-20T06:23:56;98184.94;;;16.33;76.67
79671;BME280;69137;50.878;8.050;2023-07-20T06:26:22;98181.69;;;16.17;77.47
79671;BME280;69137;50.878;8.050;2023-07-20T06:28:47;98174.94;;;16.24;76.93
79671;BME280;69137;50.878;8.050;2023-07-20T06:31:13;98181.94;;;16.44;76.32
79671;BME280;69137;50.878;8.050;2023-07-20T06:33:38;98179.72;;;16.32;75.88
79671;BME280;69137;50.878;8.050;2023-07-20T06:36:04;98193.41;;;16.37;75.50
79671;BME280;69137;50.878;8.050;2023-07-20T06:38:29;98188.56;;;16.56;74.22
79671;BME280;69137;50.878;8.050;2023-07-20T06:40:55;98192.59;;;16.73;72.82
79671;BME280;69137;50.878;8.050;2023-07-20T06:43:20;98188.88;;;16.91;71.80
79671;BME280;69137;50.878;8.050;2023-07-20T06:45:51;98184.06;;;17.19;70.60
79671;BME280;69137;50.878;8.050;2023-07-20T06:48:17;98191.34;;;17.15;69.58
79671;BME280;69137;50.878;8.050;2023-07-20T06:50:43;98180.81;;;17.17;69.46
79671;BME280;69137;50.878;8.050;2023-07-20T06:53:08;98177.56;;;17.46;69.99
79671;BME280;69137;50.878;8.050;2023-07-20T06:55:34;98164.88;;;17.45;69.75
79671;BME280;69137;50.878;8.050;2023-07-20T06:57:59;98178.75;;;17.54;69.15
79671;BME280;69137;50.878;8.050;2023-07-20T07:00:24;98181.84;;;17.61;68.67
79671;BME280;69137;50.878;8.050;2023-07-20T07:02:50;98179.09;;;17.61;69.46
79671;BME280;69137;50.878;8.050;2023-07-20T07:05:15;98180.09;;;17.65;68.49
79671;BME280;69137;50.878;8.050;2023-07-20T07:07:41;98181.78;;;17.75;67.74
79671;BME280;69137;50.878;8.050;2023-07-20T07:10:07;98184.69;;;17.70;66.54
79671;BME280;69137;50.878;8.050;2023-07-20T07:12:33;98185.13;;;17.63;65.99
79671;BME280;69137;50.878;8.050;2023-07-20T07:15:00;98193.94;;;17.74;66.85
79671;BME280;69137;50.878;8.050;2023-07-20T07:17:26;98190.19;;;17.93;65.48
79671;BME280;69137;50.878;8.050;2023-07-20T07:19:52;98187.88;;;17.95;66.20
79671;BME280;69137;50.878;8.050;2023-07-20T07:22:20;98182.84;;;17.88;65.23
79671;BME280;69137;50.878;8.050;2023-07-20T07:24:46;98191.91;;;17.80;66.00
79671;BME280;69137;50.878;8.050;2023-07-20T07:27:12;98184.19;;;18.08;64.30
79671;BME280;69137;50.878;8.050;2023-07-20T07:29:37;98179.66;;;18.12;65.10
79671;BME280;69137;50.878;8.050;2023-07-20T07:32:03;98181.28;;;18.13;63.79
79671;BME280;69137;50.878;8.050;2023-07-20T07:34:29;98183.78;;;18.32;63.62
79671;BME280;69137;50.878;8.050;2023-07-20T07:36:54;98189.00;;;18.51;61.88
79671;BME280;69137;50.878;8.050;2023-07-20T07:39:20;98185.91;;;18.44;62.26
79671;BME280;69137;50.878;8.050;2023-07-20T07:41:45;98189.50;;;18.53;62.04
79671;BME280;69137;50.878;8.050;2023-07-20T07:44:11;98192.59;;;18.43;63.20
79671;BME280;69137;50.878;8.050;2023-07-20T07:46:36;98187.56;;;18.53;62.91
79671;BME280;69137;50.878;8.050;2023-07-20T07:49:02;98196.53;;;18.68;61.91
79671;BME280;69137;50.878;8.050;2023-07-20T07:51:27;98190.06;;;18.90;61.01
79671;BME280;69137;50.878;8.050;2023-07-20T07:53:53;98192.66;;;18.95;60.37
79671;BME280;69137;50.878;8.050;2023-07-20T07:56:19;98200.44;;;19.19;60.62
79671;BME280;69137;50.878;8.050;2023-07-20T07:58:51;98192.09;;;19.45;58.59
79671;BME280;69137;50.878;8.050;2023-07-20T08:01:19;98199.72;;;19.65;59.15
79671;BME280;69137;50.878;8.050;2023-07-20T08:03:45;98192.22;;;19.66;59.89
79671;BME280;69137;50.878;8.050;2023-07-20T08:06:13;98203.16;;;19.71;58.37
79671;BME280;69137;50.878;8.050;2023-07-20T08:08:38;98204.97;;;19.67;57.53
79671;BME280;69137;50.878;8.050;2023-07-20T08:11:04;98202.09;;;19.11;58.39
79671;BME280;69137;50.878;8.050;2023-07-20T08:13:30;98204.38;;;19.18;57.65
79671;BME280;69137;50.878;8.050;2023-07-20T08:15:55;98196.41;;;18.82;57.83
79671;BME280;69137;50.878;8.050;2023-07-20T08:18:20;98198.19;;;18.95;58.20
79671;BME280;69137;50.878;8.050;2023-07-20T08:20:47;98191.84;;;19.20;58.75
79671;BME280;69137;50.878;8.050;2023-07-20T08:23:13;98200.44;;;19.19;58.38
79671;BME280;69137;50.878;8.050;2023-07-20T08:25:39;98207.13;;;19.35;58.74
79671;BME280;69137;50.878;8.050;2023-07-20T08:28:09;98202.88;;;19.29;57.99
79671;BME280;69137;50.878;8.050;2023-07-20T08:30:45;98203.22;;;19.19;58.75
79671;BME280;69137;50.878;8.050;2023-07-20T08:33:13;98203.06;;;19.24;57.67
79671;BME280;69137;50.878;8.050;2023-07-20T08:35:38;98202.91;;;19.12;56.89
79671;BME280;69137;50.878;8.050;2023-07-20T08:38:04;98210.56;;;19.06;57.93
79671;BME280;69137;50.878;8.050;2023-07-20T08:40:33;98204.69;;;19.34;57.52
79671;BME280;69137;50.878;8.050;2023-07-20T08:42:59;98208.09;;;19.39;56.13
79671;BME280;69137;50.878;8.050;2023-07-20T08:45:28;98216.00;;;19.76;56.28
79671;BME280;69137;50.878;8.050;2023-07-20T08:47:58;98218.25;;;19.91;55.31
79671;BME280;69137;50.878;8.050;2023-07-20T08:50:26;98211.66;;;20.13;54.12
79671;BME280;69137;50.878;8.050;2023-07-20T08:52:52;98217.75;;;20.27;53.73
79671;BME280;69137;50.878;8.050;2023-07-20T08:55:21;98226.88;;;20.28;52.32
79671;BME280;69137;50.878;8.050;2023-07-20T08:57:50;98214.94;;;20.06;53.57
79671;BME280;69137;50.878;8.050;2023-07-20T09:00:19;98218.31;;;20.12;54.18
79671;BME280;69137;50.878;8.050;2023-07-20T09:02:45;98215.91;;;20.40;53.95
79671;BME280;69137;50.878;8.050;2023-07-20T09:05:11;98215.09;;;20.69;52.80
79671;BME280;69137;50.878;8.050;2023-07-20T09:07:39;98215.16;;;20.61;52.07
79671;BME280;69137;50.878;8.050;2023-07-20T09:10:05;98208.72;;;20.90;52.24
79671;BME280;69137;50.878;8.050;2023-07-20T09:12:41;98213.34;;;20.86;51.98
79671;BME280;69137;50.878;8.050;2023-07-20T09:15:09;98208.00;;;21.02;51.21
79671;BME280;69137;50.878;8.050;2023-07-20T09:17:35;98207.16;;;21.01;51.88
79671;BME280;69137;50.878;8.050;2023-07-20T09:20:05;98209.94;;;21.01;49.91
79671;BME280;69137;50.878;8.050;2023-07-20T09:22:33;98211.72;;;21.06;50.98
79671;BME280;69137;50.878;8.050;2023-07-20T09:24:59;98208.13;;;21.05;50.20
79671;BME280;69137;50.878;8.050;2023-07-20T09:27:45;98207.81;;;21.19;50.36
79671;BME280;69137;50.878;8.050;2023-07-20T09:30:13;98205.78;;;21.49;47.89
79671;BME280;69137;50.878;8.050;2023-07-20T09:32:48;98204.50;;;21.47;47.52
79671;BME280;69137;50.878;8.050;2023-07-20T09:35:17;98206.88;;;21.36;46.93
79671;BME280;69137;50.878;8.050;2023-07-20T09:37:59;98203.81;;;21.29;47.99
79671;BME280;69137;50.878;8.050;2023-07-20T09:40:25;98207.53;;;21.00;49.24
79671;BME280;69137;50.878;8.050;2023-07-20T09:42:55;98210.38;;;20.91;51.00
79671;BME280;69137;50.878;8.050;2023-07-20T09:45:42;98211.41;;;20.57;50.61
79671;BME280;69137;50.878;8.050;2023-07-20T09:48:09;98202.31;;;20.47;51.79
79671;BME280;69137;50.878;8.050;2023-07-20T09:50:40;98212.13;;;20.45;51.54
79671;BME280;69137;50.878;8.050;2023-07-20T09:53:06;98207.63;;;20.61;50.48
79671;BME280;69137;50.878;8.050;2023-07-20T09:55:33;98193.78;;;20.52;51.14
79671;BME280;69137;50.878;8.050;2023-07-20T09:58:00;98203.81;;;20.45;50.90
79671;BME280;69137;50.878;8.050;2023-07-20T10:00:25;98204.00;;;20.40;52.43
79671;BME280;69137;50.878;8.050;2023-07-20T10:02:51;98201.81;;;20.75;52.62
79671;BME280;69137;50.878;8.050;2023-07-20T10:05:18;98198.19;;;20.83;49.65
79671;BME280;69137;50.878;8.050;2023-07-20T10:07:47;98202.28;;;20.77;48.98
79671;BME280;69137;50.878;8.050;2023-07-20T10:10:14;98197.25;;;20.49;48.40
79671;BME280;69137;50.878;8.050;2023-07-20T10:12:43;98197.53;;;20.27;48.74
79671;BME280;69137;50.878;8.050;2023-07-20T10:15:15;98199.69;;;20.21;50.48
79671;BME280;69137;50.878;8.050;2023-07-20T10:17:57;98216.16;;;19.88;52.08
79671;BME280;69137;50.878;8.050;2023-07-20T10:20:23;98207.81;;;19.88;51.97
79671;BME280;69137;50.878;8.050;2023-07-20T10:22:52;98212.47;;;20.14;50.88
79671;BME280;69137;50.878;8.050;2023-07-20T10:25:18;98216.50;;;20.46;51.83
79671;BME280;69137;50.878;8.050;2023-07-20T10:27:45;98215.97;;;20.82;51.18
79671;BME280;69137;50.878;8.050;2023-07-20T10:30:11;98201.63;;;21.34;49.13
79671;BME280;69137;50.878;8.050;2023-07-20T10:32:37;98203.75;;;20.54;51.02
79671;BME280;69137;50.878;8.050;2023-07-20T10:35:11;98204.25;;;20.56;51.29
79671;BME280;69137;50.878;8.050;2023-07-20T10:37:51;98204.94;;;20.44;51.33
79671;BME280;69137;50.878;8.050;2023-07-20T10:43:09;98200.75;;;20.08;53.67
79671;BME280;69137;50.878;8.050;2023-07-20T10:45:53;98197.81;;;20.64;54.53
79671;BME280;69137;50.878;8.050;2023-07-20T10:48:21;98197.22;;;20.58;52.41
79671;BME280;69137;50.878;8.050;2023-07-20T10:51:08;98190.78;;;21.08;51.02
79671;BME280;69137;50.878;8.050;2023-07-20T10:53:32;98188.53;;;21.23;47.68
79671;BME280;69137;50.878;8.050;2023-07-20T10:56:14;98192.44;;;21.22;48.64
79671;BME280;69137;50.878;8.050;2023-07-20T10:58:41;98182.16;;;21.43;49.42
79671;BME280;69137;50.878;8.050;2023-07-20T11:01:08;98184.69;;;21.15;48.25
79671;BME280;69137;50.878;8.050;2023-07-20T11:03:39;98177.44;;;21.35;48.52
79671;BME280;69137;50.878;8.050;2023-07-20T11:08:55;98178.16;;;21.11;45.58
79671;BME280;69137;50.878;8.050;2023-07-20T11:11:25;98174.22;;;21.33;46.14
79671;BME280;69137;50.878;8.050;2023-07-20T11:13:58;98177.06;;;21.24;45.68
79671;BME280;69137;50.878;8.050;2023-07-20T11:19:26;98169.38;;;21.09;45.10
79671;BME280;69137;50.878;8.050;2023-07-20T11:21:53;98176.69;;;20.92;45.93
79671;BME280;69137;50.878;8.050;2023-07-20T11:24:19;98184.03;;;20.76;46.42
79671;BME280;69137;50.878;8.050;2023-07-20T11:26:54;98185.03;;;20.71;46.14
79671;BME280;69137;50.878;8.050;2023-07-20T11:29:21;98171.69;;;20.65;44.79
79671;BME280;69137;50.878;8.050;2023-07-20T11:31:48;98177.78;;;21.00;44.26
79671;BME280;69137;50.878;8.050;2023-07-20T11:34:15;98160.03;;;20.92;43.29
79671;BME280;69137;50.878;8.050;2023-07-20T11:36:41;98165.59;;;21.47;44.86
79671;BME280;69137;50.878;8.050;2023-07-20T11:39:12;98176.88;;;21.08;47.75
79671;BME280;69137;50.878;8.050;2023-07-20T11:41:39;98169.53;;;20.70;49.42
79671;BME280;69137;50.878;8.050;2023-07-20T11:44:10;98172.56;;;20.99;49.71
79671;BME280;69137;50.878;8.050;2023-07-20T11:46:39;98178.53;;;21.09;48.28
79671;BME280;69137;50.878;8.050;2023-07-20T11:49:05;98176.28;;;21.03;48.53
79671;BME280;69137;50.878;8.050;2023-07-20T11:51:31;98173.31;;;21.08;49.96
79671;BME280;69137;50.878;8.050;2023-07-20T11:53:57;98161.72;;;21.72;49.55
79671;BME280;69137;50.878;8.050;2023-07-20T11:56:26;98173.88;;;21.68;46.93
79671;BME280;69137;50.878;8.050;2023-07-20T11:58:55;98174.34;;;21.36;48.11
79671;BME280;69137;50.878;8.050;2023-07-20T12:01:21;98170.50;;;21.29;47.07
79671;BME280;69137;50.878;8.050;2023-07-20T12:03:48;98179.78;;;21.33;47.04
79671;BME280;69137;50.878;8.050;2023-07-20T12:06:14;98178.13;;;21.20;45.93
79671;BME280;69137;50.878;8.050;2023-07-20T12:08:41;98180.34;;;21.05;46.20
79671;BME280;69137;50.878;8.050;2023-07-20T12:11:07;98176.50;;;20.98;46.84
79671;BME280;69137;50.878;8.050;2023-07-20T12:16:12;98175.63;;;20.85;45.88
79671;BME280;69137;50.878;8.050;2023-07-20T12:18:38;98174.00;;;21.05;46.17
79671;BME280;69137;50.878;8.050;2023-07-20T12:21:05;98171.59;;;21.15;46.55
79671;BME280;69137;50.878;8.050;2023-07-20T12:23:38;98181.91;;;21.15;43.07
79671;BME280;69137;50.878;8.050;2023-07-20T12:26:09;98166.13;;;21.07;44.46
79671;BME280;69137;50.878;8.050;2023-07-20T12:28:39;98172.97;;;21.09;44.48
79671;BME280;69137;50.878;8.050;2023-07-20T12:31:09;98175.59;;;21.06;44.98
79671;BME280;69137;50.878;8.050;2023-07-20T12:33:36;98177.50;;;21.14;44.35
79671;BME280;69137;50.878;8.050;2023-07-20T12:36:02;98178.38;;;21.06;43.51
79671;BME280;69137;50.878;8.050;2023-07-20T12:38:27;98179.63;;;20.96;44.08
79671;BME280;69137;50.878;8.050;2023-07-20T12:40:54;98170.47;;;20.95;44.13
79671;BME280;69137;50.878;8.050;2023-07-20T12:43:20;98171.16;;;20.92;43.19
79671;BME280;69137;50.878;8.050;2023-07-20T12:45:46;98169.56;;;21.04;44.62
79671;BME280;69137;50.878;8.050;2023-07-20T12:48:12;98177.09;;;21.03;43.78
79671;BME280;69137;50.878;8.050;2023-07-20T12:50:37;98171.16;;;20.92;43.78
79671;BME280;69137;50.878;8.050;2023-07-20T12:53:02;98172.97;;;20.67;45.30
79671;BME280;69137;50.878;8.050;2023-07-20T12:55:29;98171.22;;;20.63;44.28
79671;BME280;69137;50.878;8.050;2023-07-20T12:57:55;98160.91;;;20.42;44.42
79671;BME280;69137;50.878;8.050;2023-07-20T13:00:21;98172.72;;;20.60;43.92
79671;BME280;69137;50.878;8.050;2023-07-20T13:02:50;98163.09;;;21.00;43.45
79671;BME280;69137;50.878;8.050;2023-07-20T13:05:16;98168.50;;;21.17;42.55
79671;BME280;69137;50.878;8.050;2023-07-20T13:07:41;98170.38;;;21.58;41.54
79671;BME280;69137;50.878;8.050;2023-07-20T13:10:08;98182.91;;;21.89;39.99
79671;BME280;69137;50.878;8.050;2023-07-20T13:12:34;98156.25;;;21.76;40.72
79671;BME280;69137;50.878;8.050;2023-07-20T13:15:04;98168.19;;;21.76;42.73
79671;BME280;69137;50.878;8.050;2023-07-20T13:17:34;98165.56;;;21.80;41.26
79671;BME280;69137;50.878;8.050;2023-07-20T13:20:00;98161.97;;;21.79;40.37
79671;BME280;69137;50.878;8.050;2023-07-20T13:22:25;98161.59;;;21.69;40.73